PWSweather.com
Personal Weather Stations
Station Observations
KCARIDGE3
Ridgecrest, CA 93555

Ridgecrest, CA 93555

Lat: 35.62083817, Lon: -117.6733017

Elevation: 2315

Station Type:

High Low Average
Temperature 106.3°F41.3°C 83.5°F28.6°C 92.7°F33.7°C
Dew Point 52.9°F11.6°C 41.2°F5.1°C 46.8°F8.2°C
Winds 21.9 mph 35.2 kmh 2.0 mph 3.2 kmh 8.0 mph SSW12.9 kmh SSW
Wind Gusts 25.9 mph41.7 kmh -- 8.0 mph12.9 kmh
Humidity 29% 12% 22%
Pressure -338605.1 mb -338605.1 mb -
Precipitation 0.00 in0.0 mm - -
Hour Temp Dew Point Humidity Winds Wind Gusts Pressure Precip Precip Rate Daily Precip Total
12:02 AM 90.1°F32.3°C 45.0°F7.2°C 21% 11.0 mph SSW17.7 kmh SSW 12.1 mph19.5 kmh -338605.1 mb - 0.00 in0.0 mm 0.00 in0.0 mm
12:07 AM 90.0°F32.2°C 44.8°F7.1°C 21% 12.1 mph SSW19.5 kmh SSW 6.9 mph11.1 kmh -338605.1 mb - 0.00 in0.0 mm 0.00 in0.0 mm
12:12 AM 89.8°F32.1°C 45.9°F7.7°C 22% 12.1 mph S19.5 kmh S 6.9 mph11.1 kmh -338605.1 mb - 0.00 in0.0 mm 0.00 in0.0 mm
12:17 AM 89.4°F31.9°C 45.5°F7.5°C 22% 10.1 mph SSW16.3 kmh SSW 16.1 mph25.9 kmh -338605.1 mb - 0.00 in0.0 mm 0.00 in0.0 mm
12:22 AM 89.4°F31.9°C 45.5°F7.5°C 22% 11.0 mph SSW17.7 kmh SSW 13.0 mph20.9 kmh -338605.1 mb - 0.00 in0.0 mm 0.00 in0.0 mm
12:27 AM 89.4°F31.9°C 45.5°F7.5°C 22% 12.1 mph SW19.5 kmh SW 6.9 mph11.1 kmh -338605.1 mb - 0.00 in0.0 mm 0.00 in0.0 mm
12:32 AM 89.2°F31.8°C 45.5°F7.5°C 22% 12.1 mph SW19.5 kmh SW 10.1 mph16.3 kmh -338605.1 mb - 0.00 in0.0 mm 0.00 in0.0 mm
12:37 AM 89.1°F31.7°C 45.3°F7.4°C 22% 11.0 mph SSW17.7 kmh SSW 17.0 mph27.4 kmh -338605.1 mb - 0.00 in0.0 mm 0.00 in0.0 mm
12:42 AM 89.1°F31.7°C 45.3°F7.4°C 22% 12.1 mph SW19.5 kmh SW 11.0 mph17.7 kmh -338605.1 mb - 0.00 in0.0 mm 0.00 in0.0 mm
12:47 AM 88.9°F31.6°C 45.1°F7.3°C 22% 11.0 mph SSW17.7 kmh SSW 13.0 mph20.9 kmh -338605.1 mb - 0.00 in0.0 mm 0.00 in0.0 mm
12:52 AM 88.9°F31.6°C 45.1°F7.3°C 22% 11.0 mph SW17.7 kmh SW 6.0 mph9.7 kmh -338605.1 mb - 0.00 in0.0 mm 0.00 in0.0 mm
12:57 AM 88.9°F31.6°C 45.1°F7.3°C 22% 12.1 mph SW19.5 kmh SW 13.0 mph20.9 kmh -338605.1 mb - 0.00 in0.0 mm 0.00 in0.0 mm
01:02 AM 88.9°F31.6°C 45.1°F7.3°C 22% 12.1 mph SW19.5 kmh SW 17.9 mph28.8 kmh -338605.1 mb - 0.00 in0.0 mm 0.00 in0.0 mm
01:07 AM 89.1°F31.7°C 45.3°F7.4°C 22% 12.1 mph SSW19.5 kmh SSW 6.9 mph11.1 kmh -338605.1 mb - 0.00 in0.0 mm 0.00 in0.0 mm
01:12 AM 88.5°F31.4°C 44.8°F7.1°C 22% 12.1 mph SSW19.5 kmh SSW 8.9 mph14.3 kmh -338605.1 mb - 0.00 in0.0 mm 0.00 in0.0 mm
01:17 AM 88.3°F31.3°C 45.9°F7.7°C 23% 11.0 mph S17.7 kmh S 6.0 mph9.7 kmh -338605.1 mb - 0.00 in0.0 mm 0.00 in0.0 mm
01:22 AM 88.3°F31.3°C 45.9°F7.7°C 23% 11.0 mph S17.7 kmh S 8.1 mph13.0 kmh -338605.1 mb - 0.00 in0.0 mm 0.00 in0.0 mm
01:27 AM 88.5°F31.4°C 46.0°F7.8°C 23% 10.1 mph SW16.3 kmh SW 12.1 mph19.5 kmh -338605.1 mb - 0.00 in0.0 mm 0.00 in0.0 mm
01:32 AM 88.7°F31.5°C 46.2°F7.9°C 23% 11.0 mph SW17.7 kmh SW 15.0 mph24.1 kmh -338605.1 mb - 0.00 in0.0 mm 0.00 in0.0 mm
01:37 AM 88.3°F31.3°C 45.9°F7.7°C 23% 11.0 mph S17.7 kmh S 6.0 mph9.7 kmh -338605.1 mb - 0.00 in0.0 mm 0.00 in0.0 mm
01:42 AM 88.2°F31.2°C 45.7°F7.6°C 23% 8.9 mph SSW14.3 kmh SSW 6.0 mph9.7 kmh -338605.1 mb - 0.00 in0.0 mm 0.00 in0.0 mm
01:47 AM 87.8°F31.0°C 45.3°F7.4°C 23% 8.9 mph SW14.3 kmh SW 4.9 mph7.9 kmh -338605.1 mb - 0.00 in0.0 mm 0.00 in0.0 mm
01:52 AM 87.4°F30.8°C 46.2°F7.9°C 24% 8.1 mph SSW13.0 kmh SSW 8.1 mph13.0 kmh -338605.1 mb - 0.00 in0.0 mm 0.00 in0.0 mm
01:57 AM 87.3°F30.7°C 46.0°F7.8°C 24% 8.1 mph SSW13.0 kmh SSW 4.9 mph7.9 kmh -338605.1 mb - 0.00 in0.0 mm 0.00 in0.0 mm
02:02 AM 87.3°F30.7°C 46.0°F7.8°C 24% 8.1 mph SSW13.0 kmh SSW 6.0 mph9.7 kmh -338605.1 mb - 0.00 in0.0 mm 0.00 in0.0 mm
02:07 AM 87.1°F30.6°C 45.9°F7.7°C 24% 8.1 mph SW13.0 kmh SW 10.1 mph16.3 kmh -338605.1 mb - 0.00 in0.0 mm 0.00 in0.0 mm
02:12 AM 87.1°F30.6°C 45.9°F7.7°C 24% 8.1 mph SW13.0 kmh SW 6.9 mph11.1 kmh -338605.1 mb - 0.00 in0.0 mm 0.00 in0.0 mm
02:17 AM 87.1°F30.6°C 45.9°F7.7°C 24% 8.9 mph SSW14.3 kmh SSW 6.9 mph11.1 kmh -338605.1 mb - 0.00 in0.0 mm 0.00 in0.0 mm
02:22 AM 87.1°F30.6°C 45.9°F7.7°C 24% 8.9 mph SW14.3 kmh SW 6.9 mph11.1 kmh -338605.1 mb - 0.00 in0.0 mm 0.00 in0.0 mm
02:27 AM 86.9°F30.5°C 46.8°F8.2°C 25% 8.1 mph SSW13.0 kmh SSW 8.1 mph13.0 kmh -338605.1 mb - 0.00 in0.0 mm 0.00 in0.0 mm
02:32 AM 86.9°F30.5°C 47.8°F8.8°C 26% 8.9 mph SSW14.3 kmh SSW 4.9 mph7.9 kmh -338605.1 mb - 0.00 in0.0 mm 0.00 in0.0 mm
02:37 AM 86.9°F30.5°C 47.8°F8.8°C 26% 10.1 mph SW16.3 kmh SW 16.1 mph25.9 kmh -338605.1 mb - 0.00 in0.0 mm 0.00 in0.0 mm
02:42 AM 87.1°F30.6°C 48.0°F8.9°C 26% 11.0 mph SW17.7 kmh SW 13.0 mph20.9 kmh -338605.1 mb - 0.00 in0.0 mm 0.00 in0.0 mm
02:47 AM 87.3°F30.7°C 48.2°F9.0°C 26% 11.0 mph WSW17.7 kmh WSW 8.1 mph13.0 kmh -338605.1 mb - 0.00 in0.0 mm 0.00 in0.0 mm
02:52 AM 87.3°F30.7°C 48.2°F9.0°C 26% 11.0 mph SW17.7 kmh SW 8.9 mph14.3 kmh -338605.1 mb - 0.00 in0.0 mm 0.00 in0.0 mm
02:57 AM 87.3°F30.7°C 47.1°F8.4°C 25% 11.0 mph SW17.7 kmh SW 8.9 mph14.3 kmh -338605.1 mb - 0.00 in0.0 mm 0.00 in0.0 mm
03:02 AM 87.4°F30.8°C 47.3°F8.5°C 25% 11.0 mph SW17.7 kmh SW 8.9 mph14.3 kmh -338605.1 mb - 0.00 in0.0 mm 0.00 in0.0 mm
03:07 AM 87.3°F30.7°C 46.0°F7.8°C 24% 8.9 mph SSW14.3 kmh SSW 8.1 mph13.0 kmh -338605.1 mb - 0.00 in0.0 mm 0.00 in0.0 mm
03:12 AM 87.1°F30.6°C 46.9°F8.3°C 25% 8.9 mph S14.3 kmh S 8.9 mph14.3 kmh -338605.1 mb - 0.00 in0.0 mm 0.00 in0.0 mm
03:17 AM 86.9°F30.5°C 46.8°F8.2°C 25% 8.9 mph SSW14.3 kmh SSW 6.0 mph9.7 kmh -338605.1 mb - 0.00 in0.0 mm 0.00 in0.0 mm
03:22 AM 87.1°F30.6°C 46.9°F8.3°C 25% 8.9 mph SW14.3 kmh SW 6.0 mph9.7 kmh -338605.1 mb - 0.00 in0.0 mm 0.00 in0.0 mm
03:27 AM 87.3°F30.7°C 46.0°F7.8°C 24% 8.9 mph S14.3 kmh S 8.1 mph13.0 kmh -338605.1 mb - 0.00 in0.0 mm 0.00 in0.0 mm
03:32 AM 87.3°F30.7°C 46.0°F7.8°C 24% 8.9 mph S14.3 kmh S 12.1 mph19.5 kmh -338605.1 mb - 0.00 in0.0 mm 0.00 in0.0 mm
03:37 AM 87.1°F30.6°C 46.9°F8.3°C 25% 8.1 mph SW13.0 kmh SW 12.1 mph19.5 kmh -338605.1 mb - 0.00 in0.0 mm 0.00 in0.0 mm
03:42 AM 86.9°F30.5°C 46.8°F8.2°C 25% 8.9 mph SSW14.3 kmh SSW 8.1 mph13.0 kmh -338605.1 mb - 0.00 in0.0 mm 0.00 in0.0 mm
03:47 AM 86.9°F30.5°C 46.8°F8.2°C 25% 8.9 mph SW14.3 kmh SW 4.9 mph7.9 kmh -338605.1 mb - 0.00 in0.0 mm 0.00 in0.0 mm
03:52 AM 87.1°F30.6°C 46.9°F8.3°C 25% 8.1 mph WSW13.0 kmh WSW 6.9 mph11.1 kmh -338605.1 mb - 0.00 in0.0 mm 0.00 in0.0 mm
03:57 AM 87.1°F30.6°C 46.9°F8.3°C 25% 8.1 mph SW13.0 kmh SW 8.1 mph13.0 kmh -338605.1 mb - 0.00 in0.0 mm 0.00 in0.0 mm
04:02 AM 87.1°F30.6°C 46.9°F8.3°C 25% 8.1 mph SW13.0 kmh SW 10.1 mph16.3 kmh -338605.1 mb - 0.00 in0.0 mm 0.00 in0.0 mm
04:07 AM 87.1°F30.6°C 46.9°F8.3°C 25% 8.1 mph WSW13.0 kmh WSW 6.0 mph9.7 kmh -338605.1 mb - 0.00 in0.0 mm 0.00 in0.0 mm
04:12 AM 86.9°F30.5°C 46.8°F8.2°C 25% 8.9 mph WSW14.3 kmh WSW 6.0 mph9.7 kmh -338605.1 mb - 0.00 in0.0 mm 0.00 in0.0 mm
04:17 AM 86.5°F30.3°C 46.6°F8.1°C 25% 8.1 mph SW13.0 kmh SW 8.1 mph13.0 kmh -338605.1 mb - 0.00 in0.0 mm 0.00 in0.0 mm
04:22 AM 86.4°F30.2°C 47.5°F8.6°C 26% 6.0 mph SSW9.7 kmh SSW 4.9 mph7.9 kmh -338605.1 mb - 0.00 in0.0 mm 0.00 in0.0 mm
04:27 AM 86.2°F30.1°C 47.3°F8.5°C 26% 6.0 mph WSW9.7 kmh WSW 4.9 mph7.9 kmh -338605.1 mb - 0.00 in0.0 mm 0.00 in0.0 mm
04:32 AM 86.0°F30.0°C 47.1°F8.4°C 26% 4.9 mph WSW7.9 kmh WSW 2.0 mph3.2 kmh -338605.1 mb - 0.00 in0.0 mm 0.00 in0.0 mm
04:37 AM 85.6°F29.8°C 46.8°F8.2°C 26% 2.9 mph WSW4.7 kmh WSW 2.0 mph3.2 kmh -338605.1 mb - 0.00 in0.0 mm 0.00 in0.0 mm
04:42 AM 85.3°F29.6°C 47.5°F8.6°C 27% 2.9 mph SSW4.7 kmh SSW 4.0 mph6.4 kmh -338605.1 mb - 0.00 in0.0 mm 0.00 in0.0 mm
04:47 AM 84.9°F29.4°C 47.1°F8.4°C 27% 4.9 mph SW7.9 kmh SW 4.9 mph7.9 kmh -338605.1 mb - 0.00 in0.0 mm 0.00 in0.0 mm
04:52 AM 84.6°F29.2°C 47.8°F8.8°C 28% 4.9 mph SW7.9 kmh SW 2.0 mph3.2 kmh -338605.1 mb - 0.00 in0.0 mm 0.00 in0.0 mm
04:57 AM 84.6°F29.2°C 46.9°F8.3°C 27% 4.0 mph SSW6.4 kmh SSW 2.0 mph3.2 kmh -338605.1 mb - 0.00 in0.0 mm 0.00 in0.0 mm
05:02 AM 84.2°F29.0°C 48.6°F9.2°C 29% 2.9 mph SE4.7 kmh SE 4.0 mph6.4 kmh -338605.1 mb - 0.00 in0.0 mm 0.00 in0.0 mm
05:07 AM 83.7°F28.7°C 47.1°F8.4°C 28% 4.9 mph SE7.9 kmh SE 6.0 mph9.7 kmh -338605.1 mb - 0.00 in0.0 mm 0.00 in0.0 mm
05:12 AM 83.5°F28.6°C 46.9°F8.3°C 28% 4.9 mph SE7.9 kmh SE 2.9 mph4.7 kmh -338605.1 mb - 0.00 in0.0 mm 0.00 in0.0 mm
05:17 AM 84.0°F28.9°C 47.5°F8.6°C 28% 4.0 mph SE6.4 kmh SE 2.9 mph4.7 kmh -338605.1 mb - 0.00 in0.0 mm 0.00 in0.0 mm
05:22 AM 84.2°F29.0°C 47.5°F8.6°C 28% 2.9 mph SE4.7 kmh SE 4.0 mph6.4 kmh -338605.1 mb - 0.00 in0.0 mm 0.00 in0.0 mm
05:27 AM 84.2°F29.0°C 47.5°F8.6°C 28% 4.0 mph SW6.4 kmh SW 4.0 mph6.4 kmh -338605.1 mb - 0.00 in0.0 mm 0.00 in0.0 mm
05:32 AM 84.4°F29.1°C 47.7°F8.7°C 28% 2.9 mph WSW4.7 kmh WSW 4.0 mph6.4 kmh -338605.1 mb - 0.00 in0.0 mm 0.00 in0.0 mm
05:37 AM 86.2°F30.1°C 47.3°F8.5°C 26% 2.9 mph WSW4.7 kmh WSW 2.9 mph4.7 kmh -338605.1 mb - 0.00 in0.0 mm 0.00 in0.0 mm
05:42 AM 86.5°F30.3°C 47.7°F8.7°C 26% 2.9 mph WSW4.7 kmh WSW 2.9 mph4.7 kmh -338605.1 mb - 0.00 in0.0 mm 0.00 in0.0 mm
05:47 AM 86.0°F30.0°C 47.1°F8.4°C 26% 2.9 mph S4.7 kmh S 2.0 mph3.2 kmh -338605.1 mb - 0.00 in0.0 mm 0.00 in0.0 mm
05:52 AM 84.6°F29.2°C 47.8°F8.8°C 28% 2.0 mph S3.2 kmh S 4.0 mph6.4 kmh -338605.1 mb - 0.00 in0.0 mm 0.00 in0.0 mm
05:57 AM 83.7°F28.7°C 48.0°F8.9°C 29% 2.9 mph SE4.7 kmh SE 4.9 mph7.9 kmh -338605.1 mb - 0.00 in0.0 mm 0.00 in0.0 mm
06:02 AM 83.7°F28.7°C 48.0°F8.9°C 29% 4.9 mph S7.9 kmh S 8.1 mph13.0 kmh -338605.1 mb - 0.00 in0.0 mm 0.00 in0.0 mm
06:07 AM 83.8°F28.8°C 48.2°F9.0°C 29% 6.9 mph S11.1 kmh S 4.0 mph6.4 kmh -338605.1 mb - 0.00 in0.0 mm 0.00 in0.0 mm
06:12 AM 83.5°F28.6°C 47.8°F8.8°C 29% 6.0 mph S9.7 kmh S 8.1 mph13.0 kmh -338605.1 mb - 0.00 in0.0 mm 0.00 in0.0 mm
06:17 AM 84.4°F29.1°C 47.7°F8.7°C 28% 6.9 mph SSE11.1 kmh SSE 13.0 mph20.9 kmh -338605.1 mb - 0.00 in0.0 mm 0.00 in0.0 mm
06:22 AM 85.3°F29.6°C 47.5°F8.6°C 27% 8.9 mph S14.3 kmh S 12.1 mph19.5 kmh -338605.1 mb - 0.00 in0.0 mm 0.00 in0.0 mm
06:27 AM 85.5°F29.7°C 47.7°F8.7°C 27% 10.1 mph S16.3 kmh S 14.1 mph22.7 kmh -338605.1 mb - 0.00 in0.0 mm 0.00 in0.0 mm
06:32 AM 85.5°F29.7°C 46.6°F8.1°C 26% 12.1 mph S19.5 kmh S 11.0 mph17.7 kmh -338605.1 mb - 0.00 in0.0 mm 0.00 in0.0 mm
06:37 AM 85.5°F29.7°C 47.7°F8.7°C 27% 12.1 mph S19.5 kmh S 10.1 mph16.3 kmh -338605.1 mb - 0.00 in0.0 mm 0.00 in0.0 mm
06:42 AM 85.6°F29.8°C 46.8°F8.2°C 26% 10.1 mph S16.3 kmh S 11.0 mph17.7 kmh -338605.1 mb - 0.00 in0.0 mm 0.00 in0.0 mm
06:47 AM 86.0°F30.0°C 47.1°F8.4°C 26% 11.0 mph S17.7 kmh S 11.0 mph17.7 kmh -338605.1 mb - 0.00 in0.0 mm 0.00 in0.0 mm
06:52 AM 86.0°F30.0°C 47.1°F8.4°C 26% 10.1 mph S16.3 kmh S 8.1 mph13.0 kmh -338605.1 mb - 0.00 in0.0 mm 0.00 in0.0 mm
06:57 AM 85.8°F29.9°C 46.9°F8.3°C 26% 8.1 mph S13.0 kmh S 11.0 mph17.7 kmh -338605.1 mb - 0.00 in0.0 mm 0.00 in0.0 mm
07:02 AM 85.8°F29.9°C 48.0°F8.9°C 27% 8.1 mph S13.0 kmh S 11.0 mph17.7 kmh -338605.1 mb - 0.00 in0.0 mm 0.00 in0.0 mm
07:07 AM 86.5°F30.3°C 47.7°F8.7°C 26% 8.1 mph SSW13.0 kmh SSW 11.0 mph17.7 kmh -338605.1 mb - 0.00 in0.0 mm 0.00 in0.0 mm
07:12 AM 86.9°F30.5°C 47.8°F8.8°C 26% 8.1 mph WSW13.0 kmh WSW 6.0 mph9.7 kmh -338605.1 mb - 0.00 in0.0 mm 0.00 in0.0 mm
07:17 AM 87.1°F30.6°C 48.0°F8.9°C 26% 6.9 mph SW11.1 kmh SW 8.9 mph14.3 kmh -338605.1 mb - 0.00 in0.0 mm 0.00 in0.0 mm
07:22 AM 87.3°F30.7°C 48.2°F9.0°C 26% 8.1 mph WSW13.0 kmh WSW 10.1 mph16.3 kmh -338605.1 mb - 0.00 in0.0 mm 0.00 in0.0 mm
07:27 AM 87.6°F30.9°C 47.5°F8.6°C 25% 8.1 mph W13.0 kmh W 8.9 mph14.3 kmh -338605.1 mb - 0.00 in0.0 mm 0.00 in0.0 mm
07:32 AM 88.0°F31.1°C 47.8°F8.8°C 25% 8.1 mph W13.0 kmh W 8.1 mph13.0 kmh -338605.1 mb - 0.00 in0.0 mm 0.00 in0.0 mm
07:37 AM 88.7°F31.5°C 48.4°F9.1°C 25% 8.1 mph W13.0 kmh W 8.1 mph13.0 kmh -338605.1 mb - 0.00 in0.0 mm 0.00 in0.0 mm
07:42 AM 89.2°F31.8°C 48.7°F9.3°C 25% 8.9 mph W14.3 kmh W 10.1 mph16.3 kmh -338605.1 mb - 0.00 in0.0 mm 0.00 in0.0 mm
07:47 AM 89.1°F31.7°C 48.7°F9.3°C 25% 8.1 mph WSW13.0 kmh WSW 8.1 mph13.0 kmh -338605.1 mb - 0.00 in0.0 mm 0.00 in0.0 mm
07:52 AM 88.5°F31.4°C 49.3°F9.6°C 26% 8.1 mph WSW13.0 kmh WSW 6.0 mph9.7 kmh -338605.1 mb - 0.00 in0.0 mm 0.00 in0.0 mm
07:57 AM 88.7°F31.5°C 49.5°F9.7°C 26% 6.9 mph WSW11.1 kmh WSW 4.9 mph7.9 kmh -338605.1 mb - 0.00 in0.0 mm 0.00 in0.0 mm
08:02 AM 89.4°F31.9°C 48.9°F9.4°C 25% 6.0 mph W9.7 kmh W 4.9 mph7.9 kmh -338605.1 mb - 0.00 in0.0 mm 0.00 in0.0 mm
08:07 AM 88.7°F31.5°C 49.5°F9.7°C 26% 6.9 mph WSW11.1 kmh WSW 8.1 mph13.0 kmh -338605.1 mb - 0.00 in0.0 mm 0.00 in0.0 mm
08:12 AM 88.9°F31.6°C 49.6°F9.8°C 26% 6.9 mph WSW11.1 kmh WSW 8.1 mph13.0 kmh -338605.1 mb - 0.00 in0.0 mm 0.00 in0.0 mm
08:17 AM 89.4°F31.9°C 48.9°F9.4°C 25% 6.9 mph WSW11.1 kmh WSW 8.1 mph13.0 kmh -338605.1 mb - 0.00 in0.0 mm 0.00 in0.0 mm
08:22 AM 89.8°F32.1°C 49.3°F9.6°C 25% 6.0 mph WSW9.7 kmh WSW 2.0 mph3.2 kmh -338605.1 mb - 0.00 in0.0 mm 0.00 in0.0 mm
08:27 AM 89.8°F32.1°C 49.3°F9.6°C 25% 2.9 mph S4.7 kmh S 4.9 mph7.9 kmh -338605.1 mb - 0.00 in0.0 mm 0.00 in0.0 mm
08:32 AM 89.2°F31.8°C 48.7°F9.3°C 25% 2.9 mph ENE4.7 kmh ENE 2.0 mph3.2 kmh -338605.1 mb - 0.00 in0.0 mm 0.00 in0.0 mm
08:37 AM 89.2°F31.8°C 48.7°F9.3°C 25% 2.9 mph ENE4.7 kmh ENE 0.9 mph1.4 kmh -338605.1 mb - 0.00 in0.0 mm 0.00 in0.0 mm
08:42 AM 89.2°F31.8°C 48.7°F9.3°C 25% 2.0 mph ENE3.2 kmh ENE 4.0 mph6.4 kmh -338605.1 mb - 0.00 in0.0 mm 0.00 in0.0 mm
08:47 AM 89.4°F31.9°C 47.8°F8.8°C 24% 4.0 mph NE6.4 kmh NE 6.9 mph11.1 kmh -338605.1 mb - 0.00 in0.0 mm 0.00 in0.0 mm
08:52 AM 89.8°F32.1°C 48.2°F9.0°C 24% 4.9 mph NE7.9 kmh NE -- -338605.1 mb - 0.00 in0.0 mm 0.00 in0.0 mm
08:57 AM 89.1°F31.7°C 48.7°F9.3°C 25% 2.0 mph NNE3.2 kmh NNE 0.9 mph1.4 kmh -338605.1 mb - 0.00 in0.0 mm 0.00 in0.0 mm
09:02 AM 89.8°F32.1°C 49.3°F9.6°C 25% 2.0 mph NW3.2 kmh NW 2.9 mph4.7 kmh -338605.1 mb - 0.00 in0.0 mm 0.00 in0.0 mm
09:07 AM 91.2°F32.9°C 48.2°F9.0°C 23% 2.0 mph WNW3.2 kmh WNW 2.9 mph4.7 kmh -338605.1 mb - 0.00 in0.0 mm 0.00 in0.0 mm
09:12 AM 92.3°F33.5°C 52.5°F11.4°C 26% 2.0 mph WNW3.2 kmh WNW 4.0 mph6.4 kmh -338605.1 mb - 0.00 in0.0 mm 0.00 in0.0 mm
09:17 AM 92.8°F33.8°C 52.9°F11.6°C 26% 2.0 mph WNW3.2 kmh WNW -- -338605.1 mb - 0.00 in0.0 mm 0.00 in0.0 mm
09:22 AM 93.6°F34.2°C 50.2°F10.1°C 23% 2.0 mph SW3.2 kmh SW 2.0 mph3.2 kmh -338605.1 mb - 0.00 in0.0 mm 0.00 in0.0 mm
09:27 AM 94.1°F34.5°C 49.5°F9.7°C 22% 4.0 mph SSW6.4 kmh SSW 4.9 mph7.9 kmh -338605.1 mb - 0.00 in0.0 mm 0.00 in0.0 mm
09:32 AM 93.9°F34.4°C 49.3°F9.6°C 22% 6.0 mph S9.7 kmh S 8.9 mph14.3 kmh -338605.1 mb - 0.00 in0.0 mm 0.00 in0.0 mm
09:37 AM 94.8°F34.9°C 48.7°F9.3°C 21% 8.1 mph S13.0 kmh S 8.9 mph14.3 kmh -338605.1 mb - 0.00 in0.0 mm 0.00 in0.0 mm
09:42 AM 95.5°F35.3°C 48.0°F8.9°C 20% 8.1 mph SSW13.0 kmh SSW 8.1 mph13.0 kmh -338605.1 mb - 0.00 in0.0 mm 0.00 in0.0 mm
09:47 AM 95.2°F35.1°C 49.1°F9.5°C 21% 6.9 mph SSW11.1 kmh SSW 4.9 mph7.9 kmh -338605.1 mb - 0.00 in0.0 mm 0.00 in0.0 mm
09:52 AM 95.9°F35.5°C 48.4°F9.1°C 20% 6.9 mph S11.1 kmh S 6.0 mph9.7 kmh -338605.1 mb - 0.00 in0.0 mm 0.00 in0.0 mm
09:57 AM 96.4°F35.8°C 47.5°F8.6°C 19% 4.9 mph S7.9 kmh S 4.0 mph6.4 kmh -338605.1 mb - 0.00 in0.0 mm 0.00 in0.0 mm
10:02 AM 96.6°F35.9°C 47.7°F8.7°C 19% 4.9 mph SE7.9 kmh SE 2.0 mph3.2 kmh -338605.1 mb - 0.00 in0.0 mm 0.00 in0.0 mm
10:07 AM 97.9°F36.6°C 47.1°F8.4°C 18% 2.9 mph S4.7 kmh S 6.0 mph9.7 kmh -338605.1 mb - 0.00 in0.0 mm 0.00 in0.0 mm
10:12 AM 98.8°F37.1°C 47.8°F8.8°C 18% 2.9 mph S4.7 kmh S 6.0 mph9.7 kmh -338605.1 mb - 0.00 in0.0 mm 0.00 in0.0 mm
10:17 AM 99.0°F37.2°C 48.0°F8.9°C 18% 4.0 mph SE6.4 kmh SE 4.0 mph6.4 kmh -338605.1 mb - 0.00 in0.0 mm 0.00 in0.0 mm
10:22 AM 99.1°F37.3°C 48.2°F9.0°C 18% 2.9 mph SE4.7 kmh SE 4.9 mph7.9 kmh -338605.1 mb - 0.00 in0.0 mm 0.00 in0.0 mm
10:27 AM 99.3°F37.4°C 46.8°F8.2°C 17% 2.9 mph SE4.7 kmh SE 4.0 mph6.4 kmh -338605.1 mb - 0.00 in0.0 mm 0.00 in0.0 mm
10:32 AM 100.0°F37.8°C 45.9°F7.7°C 16% 4.0 mph E6.4 kmh E 4.9 mph7.9 kmh -338605.1 mb - 0.00 in0.0 mm 0.00 in0.0 mm
10:37 AM 100.9°F38.3°C 46.6°F8.1°C 16% 6.0 mph ENE9.7 kmh ENE 4.9 mph7.9 kmh -338605.1 mb - 0.00 in0.0 mm 0.00 in0.0 mm
10:42 AM 101.5°F38.6°C 46.9°F8.3°C 16% 6.9 mph ENE11.1 kmh ENE 4.9 mph7.9 kmh -338605.1 mb - 0.00 in0.0 mm 0.00 in0.0 mm
10:47 AM 102.0°F38.9°C 47.3°F8.5°C 16% 8.1 mph ENE13.0 kmh ENE 11.0 mph17.7 kmh -338605.1 mb - 0.00 in0.0 mm 0.00 in0.0 mm
10:52 AM 102.2°F39.0°C 47.5°F8.6°C 16% 8.1 mph ENE13.0 kmh ENE 8.9 mph14.3 kmh -338605.1 mb - 0.00 in0.0 mm 0.00 in0.0 mm
10:57 AM 102.9°F39.4°C 46.4°F8.0°C 15% 8.1 mph E13.0 kmh E 6.9 mph11.1 kmh -338605.1 mb - 0.00 in0.0 mm 0.00 in0.0 mm
11:02 AM 103.3°F39.6°C 46.6°F8.1°C 15% 8.1 mph E13.0 kmh E 6.9 mph11.1 kmh -338605.1 mb - 0.00 in0.0 mm 0.00 in0.0 mm
11:07 AM 101.8°F38.8°C 47.3°F8.5°C 16% 6.9 mph E11.1 kmh E 6.9 mph11.1 kmh -338605.1 mb - 0.00 in0.0 mm 0.00 in0.0 mm
11:12 AM 100.9°F38.3°C 46.6°F8.1°C 16% 6.0 mph NE9.7 kmh NE 4.9 mph7.9 kmh -338605.1 mb - 0.00 in0.0 mm 0.00 in0.0 mm
11:17 AM 100.4°F38.0°C 46.0°F7.8°C 16% 4.9 mph N7.9 kmh N 4.9 mph7.9 kmh -338605.1 mb - 0.00 in0.0 mm 0.00 in0.0 mm
11:22 AM 99.9°F37.7°C 45.7°F7.6°C 16% 4.9 mph SSE7.9 kmh SSE 4.9 mph7.9 kmh -338605.1 mb - 0.00 in0.0 mm 0.00 in0.0 mm
11:27 AM 101.5°F38.6°C 46.9°F8.3°C 16% 6.0 mph SE9.7 kmh SE 8.9 mph14.3 kmh -338605.1 mb - 0.00 in0.0 mm 0.00 in0.0 mm
11:32 AM 101.5°F38.6°C 45.3°F7.4°C 15% 8.1 mph SSE13.0 kmh SSE 11.0 mph17.7 kmh -338605.1 mb - 0.00 in0.0 mm 0.00 in0.0 mm
11:37 AM 101.8°F38.8°C 47.3°F8.5°C 16% 8.9 mph ESE14.3 kmh ESE 11.0 mph17.7 kmh -338605.1 mb - 0.00 in0.0 mm 0.00 in0.0 mm
11:42 AM 102.6°F39.2°C 46.0°F7.8°C 15% 10.1 mph SE16.3 kmh SE 4.9 mph7.9 kmh -338605.1 mb - 0.00 in0.0 mm 0.00 in0.0 mm
11:47 AM 103.6°F39.8°C 46.9°F8.3°C 15% 8.9 mph ESE14.3 kmh ESE 8.9 mph14.3 kmh -338605.1 mb - 0.00 in0.0 mm 0.00 in0.0 mm
11:52 AM 103.6°F39.8°C 45.1°F7.3°C 14% 8.1 mph SE13.0 kmh SE 10.1 mph16.3 kmh -338605.1 mb - 0.00 in0.0 mm 0.00 in0.0 mm
11:57 AM 103.6°F39.8°C 45.1°F7.3°C 14% 6.9 mph ESE11.1 kmh ESE 8.1 mph13.0 kmh -338605.1 mb - 0.00 in0.0 mm 0.00 in0.0 mm
12:02 PM 102.9°F39.4°C 44.6°F7.0°C 14% 4.9 mph E7.9 kmh E -- -338605.1 mb - 0.00 in0.0 mm 0.00 in0.0 mm
12:07 PM 104.0°F40.0°C 45.3°F7.4°C 14% 4.9 mph SE7.9 kmh SE 4.9 mph7.9 kmh -338605.1 mb - 0.00 in0.0 mm 0.00 in0.0 mm
12:12 PM 104.4°F40.2°C 43.7°F6.5°C 13% 6.9 mph SSW11.1 kmh SSW 4.9 mph7.9 kmh -338605.1 mb - 0.00 in0.0 mm 0.00 in0.0 mm
12:17 PM 104.7°F40.4°C 44.1°F6.7°C 13% 6.9 mph SE11.1 kmh SE 6.9 mph11.1 kmh -338605.1 mb - 0.00 in0.0 mm 0.00 in0.0 mm
12:22 PM 104.9°F40.5°C 44.1°F6.7°C 13% 8.1 mph SE13.0 kmh SE 8.1 mph13.0 kmh -338605.1 mb - 0.00 in0.0 mm 0.00 in0.0 mm
12:27 PM 105.1°F40.6°C 44.2°F6.8°C 13% 11.0 mph SE17.7 kmh SE 14.1 mph22.7 kmh -338605.1 mb - 0.00 in0.0 mm 0.00 in0.0 mm
12:32 PM 105.6°F40.9°C 44.8°F7.1°C 13% 12.1 mph SE19.5 kmh SE 15.0 mph24.1 kmh -338605.1 mb - 0.00 in0.0 mm 0.00 in0.0 mm
12:37 PM 106.3°F41.3°C 43.2°F6.2°C 12% 13.0 mph SE20.9 kmh SE 17.9 mph28.8 kmh -338605.1 mb - 0.00 in0.0 mm 0.00 in0.0 mm
12:42 PM 105.4°F40.8°C 44.6°F7.0°C 13% 14.1 mph SSE22.7 kmh SSE 12.1 mph19.5 kmh -338605.1 mb - 0.00 in0.0 mm 0.00 in0.0 mm
12:47 PM 106.0°F41.1°C 42.8°F6.0°C 12% 13.0 mph SE20.9 kmh SE 8.9 mph14.3 kmh -338605.1 mb - 0.00 in0.0 mm 0.00 in0.0 mm
12:52 PM 105.1°F40.6°C 42.3°F5.7°C 12% 12.1 mph SSW19.5 kmh SSW 12.1 mph19.5 kmh -338605.1 mb - 0.00 in0.0 mm 0.00 in0.0 mm
12:57 PM 104.2°F40.1°C 43.5°F6.4°C 13% 11.0 mph SSE17.7 kmh SSE 8.1 mph13.0 kmh -338605.1 mb - 0.00 in0.0 mm 0.00 in0.0 mm
01:02 PM 103.8°F39.9°C 43.3°F6.3°C 13% 11.0 mph S17.7 kmh S 17.0 mph27.4 kmh -338605.1 mb - 0.00 in0.0 mm 0.00 in0.0 mm
01:07 PM 104.2°F40.1°C 43.5°F6.4°C 13% 10.1 mph S16.3 kmh S 8.1 mph13.0 kmh -338605.1 mb - 0.00 in0.0 mm 0.00 in0.0 mm
01:12 PM 104.5°F40.3°C 43.9°F6.6°C 13% 8.9 mph SE14.3 kmh SE 6.0 mph9.7 kmh -338605.1 mb - 0.00 in0.0 mm 0.00 in0.0 mm
01:17 PM 105.3°F40.7°C 44.4°F6.9°C 13% 10.1 mph E16.3 kmh E 16.1 mph25.9 kmh -338605.1 mb - 0.00 in0.0 mm 0.00 in0.0 mm
01:22 PM 105.4°F40.8°C 44.6°F7.0°C 13% 13.0 mph E20.9 kmh E 16.1 mph25.9 kmh -338605.1 mb - 0.00 in0.0 mm 0.00 in0.0 mm
01:27 PM 105.1°F40.6°C 44.2°F6.8°C 13% 14.1 mph SE22.7 kmh SE 15.0 mph24.1 kmh -338605.1 mb - 0.00 in0.0 mm 0.00 in0.0 mm
01:32 PM 105.4°F40.8°C 44.6°F7.0°C 13% 14.1 mph ESE22.7 kmh ESE 11.0 mph17.7 kmh -338605.1 mb - 0.00 in0.0 mm 0.00 in0.0 mm
01:37 PM 105.3°F40.7°C 44.4°F6.9°C 13% 15.0 mph E24.1 kmh E 21.9 mph35.2 kmh -338605.1 mb - 0.00 in0.0 mm 0.00 in0.0 mm
01:42 PM 105.4°F40.8°C 44.6°F7.0°C 13% 15.0 mph ESE24.1 kmh ESE 13.0 mph20.9 kmh -338605.1 mb - 0.00 in0.0 mm 0.00 in0.0 mm
01:47 PM 105.6°F40.9°C 44.8°F7.1°C 13% 16.1 mph SE25.9 kmh SE 17.0 mph27.4 kmh -338605.1 mb - 0.00 in0.0 mm 0.00 in0.0 mm
01:52 PM 105.6°F40.9°C 42.6°F5.9°C 12% 16.1 mph E25.9 kmh E 15.0 mph24.1 kmh -338605.1 mb - 0.00 in0.0 mm 0.00 in0.0 mm
01:57 PM 105.3°F40.7°C 44.4°F6.9°C 13% 14.1 mph E22.7 kmh E 8.1 mph13.0 kmh -338605.1 mb - 0.00 in0.0 mm 0.00 in0.0 mm
02:02 PM 105.3°F40.7°C 44.4°F6.9°C 13% 14.1 mph ESE22.7 kmh ESE 12.1 mph19.5 kmh -338605.1 mb - 0.00 in0.0 mm 0.00 in0.0 mm
02:07 PM 104.5°F40.3°C 45.9°F7.7°C 14% 17.0 mph SE27.4 kmh SE 25.1 mph40.4 kmh -338605.1 mb - 0.00 in0.0 mm 0.00 in0.0 mm
02:12 PM 104.2°F40.1°C 43.5°F6.4°C 13% 19.9 mph ESE32.0 kmh ESE 17.0 mph27.4 kmh -338605.1 mb - 0.00 in0.0 mm 0.00 in0.0 mm
02:17 PM 103.3°F39.6°C 43.0°F6.1°C 13% 19.0 mph E30.6 kmh E 14.1 mph22.7 kmh -338605.1 mb - 0.00 in0.0 mm 0.00 in0.0 mm
02:22 PM 102.6°F39.2°C 44.2°F6.8°C 14% 19.0 mph ESE30.6 kmh ESE 19.9 mph32.0 kmh -338605.1 mb - 0.00 in0.0 mm 0.00 in0.0 mm
02:27 PM 101.8°F38.8°C 43.7°F6.5°C 14% 19.0 mph SE30.6 kmh SE 13.0 mph20.9 kmh -338605.1 mb - 0.00 in0.0 mm 0.00 in0.0 mm
02:32 PM 101.7°F38.7°C 43.5°F6.4°C 14% 17.9 mph ESE28.8 kmh ESE 15.0 mph24.1 kmh -338605.1 mb - 0.00 in0.0 mm 0.00 in0.0 mm
02:37 PM 100.9°F38.3°C 44.8°F7.1°C 15% 17.9 mph ESE28.8 kmh ESE 17.9 mph28.8 kmh -338605.1 mb - 0.00 in0.0 mm 0.00 in0.0 mm
02:42 PM 100.6°F38.1°C 44.6°F7.0°C 15% 19.0 mph ESE30.6 kmh ESE 16.1 mph25.9 kmh -338605.1 mb - 0.00 in0.0 mm 0.00 in0.0 mm
02:47 PM 100.0°F37.8°C 44.1°F6.7°C 15% 19.0 mph SE30.6 kmh SE 15.0 mph24.1 kmh -338605.1 mb - 0.00 in0.0 mm 0.00 in0.0 mm
02:52 PM 100.0°F37.8°C 44.1°F6.7°C 15% 17.9 mph E28.8 kmh E 23.9 mph38.5 kmh -338605.1 mb - 0.00 in0.0 mm 0.00 in0.0 mm
02:57 PM 100.2°F37.9°C 44.2°F6.8°C 15% 17.0 mph SE27.4 kmh SE 12.1 mph19.5 kmh -338605.1 mb - 0.00 in0.0 mm 0.00 in0.0 mm
03:02 PM 100.2°F37.9°C 44.2°F6.8°C 15% 16.1 mph SE25.9 kmh SE 15.0 mph24.1 kmh -338605.1 mb - 0.00 in0.0 mm 0.00 in0.0 mm
03:07 PM 99.9°F37.7°C 43.9°F6.6°C 15% 12.1 mph ESE19.5 kmh ESE 4.9 mph7.9 kmh -338605.1 mb - 0.00 in0.0 mm 0.00 in0.0 mm
03:12 PM 99.9°F37.7°C 42.1°F5.6°C 14% 11.0 mph ESE17.7 kmh ESE 12.1 mph19.5 kmh -338605.1 mb - 0.00 in0.0 mm 0.00 in0.0 mm
03:17 PM 100.4°F38.0°C 42.6°F5.9°C 14% 8.9 mph SSE14.3 kmh SSE 6.9 mph11.1 kmh -338605.1 mb - 0.00 in0.0 mm 0.00 in0.0 mm
03:22 PM 100.8°F38.2°C 42.8°F6.0°C 14% 6.9 mph S11.1 kmh S 8.9 mph14.3 kmh -338605.1 mb - 0.00 in0.0 mm 0.00 in0.0 mm
03:27 PM 100.9°F38.3°C 43.0°F6.1°C 14% 6.0 mph SE9.7 kmh SE 8.9 mph14.3 kmh -338605.1 mb - 0.00 in0.0 mm 0.00 in0.0 mm
03:32 PM 101.1°F38.4°C 41.2°F5.1°C 13% 6.9 mph SE11.1 kmh SE 2.0 mph3.2 kmh -338605.1 mb - 0.00 in0.0 mm 0.00 in0.0 mm
03:37 PM 100.6°F38.1°C 42.8°F6.0°C 14% 6.0 mph E9.7 kmh E 0.9 mph1.4 kmh -338605.1 mb - 0.00 in0.0 mm 0.00 in0.0 mm
03:42 PM 100.6°F38.1°C 42.8°F6.0°C 14% 4.9 mph S7.9 kmh S 14.1 mph22.7 kmh -338605.1 mb - 0.00 in0.0 mm 0.00 in0.0 mm
03:47 PM 100.6°F38.1°C 44.6°F7.0°C 15% 8.9 mph SSW14.3 kmh SSW 19.9 mph32.0 kmh -338605.1 mb - 0.00 in0.0 mm 0.00 in0.0 mm
03:52 PM 99.9°F37.7°C 43.9°F6.6°C 15% 13.0 mph S20.9 kmh S 6.0 mph9.7 kmh -338605.1 mb - 0.00 in0.0 mm 0.00 in0.0 mm
03:57 PM 100.2°F37.9°C 42.4°F5.8°C 14% 11.0 mph S17.7 kmh S 13.0 mph20.9 kmh -338605.1 mb - 0.00 in0.0 mm 0.00 in0.0 mm
04:02 PM 100.4°F38.0°C 42.6°F5.9°C 14% 8.9 mph SSE14.3 kmh SSE 6.9 mph11.1 kmh -338605.1 mb - 0.00 in0.0 mm 0.00 in0.0 mm
04:07 PM 99.7°F37.6°C 43.9°F6.6°C 15% 8.1 mph S13.0 kmh S 11.0 mph17.7 kmh -338605.1 mb - 0.00 in0.0 mm 0.00 in0.0 mm
04:12 PM 100.0°F37.8°C 44.1°F6.7°C 15% 8.9 mph SE14.3 kmh SE 6.9 mph11.1 kmh -338605.1 mb - 0.00 in0.0 mm 0.00 in0.0 mm
04:17 PM 99.7°F37.6°C 42.1°F5.6°C 14% 6.9 mph SE11.1 kmh SE 0.9 mph1.4 kmh -338605.1 mb - 0.00 in0.0 mm 0.00 in0.0 mm
04:22 PM 99.7°F37.6°C 43.9°F6.6°C 15% 4.0 mph SSW6.4 kmh SSW 4.0 mph6.4 kmh -338605.1 mb - 0.00 in0.0 mm 0.00 in0.0 mm
04:27 PM 99.9°F37.7°C 43.9°F6.6°C 15% 4.0 mph SSW6.4 kmh SSW 6.9 mph11.1 kmh -338605.1 mb - 0.00 in0.0 mm 0.00 in0.0 mm
04:32 PM 99.9°F37.7°C 42.1°F5.6°C 14% 4.9 mph WSW7.9 kmh WSW 4.9 mph7.9 kmh -338605.1 mb - 0.00 in0.0 mm 0.00 in0.0 mm
04:37 PM 99.7°F37.6°C 42.1°F5.6°C 14% 6.9 mph SW11.1 kmh SW 0.9 mph1.4 kmh -338605.1 mb - 0.00 in0.0 mm 0.00 in0.0 mm
04:42 PM 99.3°F37.4°C 43.5°F6.4°C 15% 6.9 mph WSW11.1 kmh WSW 10.1 mph16.3 kmh -338605.1 mb - 0.00 in0.0 mm 0.00 in0.0 mm
04:47 PM 99.7°F37.6°C 45.5°F7.5°C 16% 11.0 mph WSW17.7 kmh WSW 13.0 mph20.9 kmh -338605.1 mb - 0.00 in0.0 mm 0.00 in0.0 mm
04:52 PM 98.1°F36.7°C 48.7°F9.3°C 19% 17.0 mph WSW27.4 kmh WSW 25.1 mph40.4 kmh -338605.1 mb - 0.00 in0.0 mm 0.00 in0.0 mm
04:57 PM 97.0°F36.1°C 47.8°F8.8°C 19% 19.0 mph WSW30.6 kmh WSW 19.0 mph30.6 kmh -338605.1 mb - 0.00 in0.0 mm 0.00 in0.0 mm
05:02 PM 97.0°F36.1°C 47.8°F8.8°C 19% 19.0 mph WSW30.6 kmh WSW 21.0 mph33.8 kmh -338605.1 mb - 0.00 in0.0 mm 0.00 in0.0 mm
05:07 PM 97.0°F36.1°C 47.8°F8.8°C 19% 17.9 mph SW28.8 kmh SW 13.0 mph20.9 kmh -338605.1 mb - 0.00 in0.0 mm 0.00 in0.0 mm
05:12 PM 96.3°F35.7°C 48.7°F9.3°C 20% 19.9 mph W32.0 kmh W 19.9 mph32.0 kmh -338605.1 mb - 0.00 in0.0 mm 0.00 in0.0 mm
05:17 PM 96.1°F35.6°C 47.1°F8.4°C 19% 19.0 mph WSW30.6 kmh WSW 17.9 mph28.8 kmh -338605.1 mb - 0.00 in0.0 mm 0.00 in0.0 mm
05:22 PM 96.3°F35.7°C 48.7°F9.3°C 20% 16.1 mph W25.9 kmh W 8.9 mph14.3 kmh -338605.1 mb - 0.00 in0.0 mm 0.00 in0.0 mm
05:27 PM 96.8°F36.0°C 47.7°F8.7°C 19% 15.0 mph W24.1 kmh W 21.0 mph33.8 kmh -338605.1 mb - 0.00 in0.0 mm 0.00 in0.0 mm
05:32 PM 95.9°F35.5°C 48.4°F9.1°C 20% 19.0 mph WSW30.6 kmh WSW 25.1 mph40.4 kmh -338605.1 mb - 0.00 in0.0 mm 0.00 in0.0 mm
05:37 PM 95.0°F35.0°C 48.9°F9.4°C 21% 21.9 mph WSW35.2 kmh WSW 25.9 mph41.7 kmh -338605.1 mb - 0.00 in0.0 mm 0.00 in0.0 mm
05:42 PM 94.5°F34.7°C 49.8°F9.9°C 22% 21.9 mph WSW35.2 kmh WSW 16.1 mph25.9 kmh -338605.1 mb - 0.00 in0.0 mm 0.00 in0.0 mm
05:47 PM 94.5°F34.7°C 50.9°F10.5°C 23% 17.9 mph SW28.8 kmh SW 19.9 mph32.0 kmh -338605.1 mb - 0.00 in0.0 mm 0.00 in0.0 mm
05:52 PM 94.5°F34.7°C 50.9°F10.5°C 23% 13.0 mph WSW20.9 kmh WSW 8.9 mph14.3 kmh -338605.1 mb - 0.00 in0.0 mm 0.00 in0.0 mm
05:57 PM 94.5°F34.7°C 50.9°F10.5°C 23% 13.0 mph SW20.9 kmh SW 19.0 mph30.6 kmh -338605.1 mb - 0.00 in0.0 mm 0.00 in0.0 mm
06:02 PM 93.7°F34.3°C 50.4°F10.2°C 23% 14.1 mph WSW22.7 kmh WSW 19.0 mph30.6 kmh -338605.1 mb - 0.00 in0.0 mm 0.00 in0.0 mm
06:07 PM 93.4°F34.1°C 50.0°F10.0°C 23% 15.0 mph SW24.1 kmh SW 19.0 mph30.6 kmh -338605.1 mb - 0.00 in0.0 mm 0.00 in0.0 mm
06:12 PM 92.8°F33.8°C 49.6°F9.8°C 23% 16.1 mph SW25.9 kmh SW 19.0 mph30.6 kmh -338605.1 mb - 0.00 in0.0 mm 0.00 in0.0 mm
06:17 PM 92.5°F33.6°C 49.3°F9.6°C 23% 15.0 mph SW24.1 kmh SW 17.9 mph28.8 kmh -338605.1 mb - 0.00 in0.0 mm 0.00 in0.0 mm
06:22 PM 92.7°F33.7°C 49.5°F9.7°C 23% 15.0 mph WSW24.1 kmh WSW 17.9 mph28.8 kmh -338605.1 mb - 0.00 in0.0 mm 0.00 in0.0 mm
06:27 PM 92.7°F33.7°C 49.5°F9.7°C 23% 14.1 mph SW22.7 kmh SW 6.0 mph9.7 kmh -338605.1 mb - 0.00 in0.0 mm 0.00 in0.0 mm
06:32 PM 92.7°F33.7°C 49.5°F9.7°C 23% 12.1 mph SW19.5 kmh SW 13.0 mph20.9 kmh -338605.1 mb - 0.00 in0.0 mm 0.00 in0.0 mm
06:37 PM 93.0°F33.9°C 47.3°F8.5°C 21% 11.0 mph SW17.7 kmh SW 11.0 mph17.7 kmh -338605.1 mb - 0.00 in0.0 mm 0.00 in0.0 mm
06:42 PM 93.2°F34.0°C 47.5°F8.6°C 21% 11.0 mph SW17.7 kmh SW 8.1 mph13.0 kmh -338605.1 mb - 0.00 in0.0 mm 0.00 in0.0 mm
06:47 PM 93.4°F34.1°C 47.7°F8.7°C 21% 11.0 mph SW17.7 kmh SW 8.1 mph13.0 kmh -338605.1 mb - 0.00 in0.0 mm 0.00 in0.0 mm
06:52 PM 93.0°F33.9°C 47.3°F8.5°C 21% 8.9 mph SW14.3 kmh SW 6.0 mph9.7 kmh -338605.1 mb - 0.00 in0.0 mm 0.00 in0.0 mm
06:57 PM 92.8°F33.8°C 48.4°F9.1°C 22% 8.1 mph SW13.0 kmh SW 6.9 mph11.1 kmh -338605.1 mb - 0.00 in0.0 mm 0.00 in0.0 mm
07:02 PM 92.7°F33.7°C 48.2°F9.0°C 22% 6.9 mph SW11.1 kmh SW 8.1 mph13.0 kmh -338605.1 mb - 0.00 in0.0 mm 0.00 in0.0 mm
07:07 PM 92.7°F33.7°C 48.2°F9.0°C 22% 4.9 mph SW7.9 kmh SW 4.9 mph7.9 kmh -338605.1 mb - 0.00 in0.0 mm 0.00 in0.0 mm
07:12 PM 92.5°F33.6°C 48.0°F8.9°C 22% 4.0 mph SSW6.4 kmh SSW 4.9 mph7.9 kmh -338605.1 mb - 0.00 in0.0 mm 0.00 in0.0 mm
07:17 PM 92.8°F33.8°C 47.1°F8.4°C 21% 4.9 mph SW7.9 kmh SW 2.9 mph4.7 kmh -338605.1 mb - 0.00 in0.0 mm 0.00 in0.0 mm
07:22 PM 93.0°F33.9°C 47.3°F8.5°C 21% 4.9 mph SW7.9 kmh SW 4.0 mph6.4 kmh -338605.1 mb - 0.00 in0.0 mm 0.00 in0.0 mm
07:27 PM 93.4°F34.1°C 46.4°F8.0°C 20% 6.0 mph WSW9.7 kmh WSW 8.9 mph14.3 kmh -338605.1 mb - 0.00 in0.0 mm 0.00 in0.0 mm
07:32 PM 93.6°F34.2°C 46.4°F8.0°C 20% 8.1 mph WSW13.0 kmh WSW 8.1 mph13.0 kmh -338605.1 mb - 0.00 in0.0 mm 0.00 in0.0 mm
07:37 PM 93.4°F34.1°C 47.7°F8.7°C 21% 8.9 mph WSW14.3 kmh WSW 12.1 mph19.5 kmh -338605.1 mb - 0.00 in0.0 mm 0.00 in0.0 mm
07:42 PM 92.8°F33.8°C 47.1°F8.4°C 21% 10.1 mph SW16.3 kmh SW 15.0 mph24.1 kmh -338605.1 mb - 0.00 in0.0 mm 0.00 in0.0 mm
07:47 PM 92.5°F33.6°C 46.9°F8.3°C 21% 11.0 mph SW17.7 kmh SW 14.1 mph22.7 kmh -338605.1 mb - 0.00 in0.0 mm 0.00 in0.0 mm
07:52 PM 92.5°F33.6°C 46.9°F8.3°C 21% 10.1 mph WSW16.3 kmh WSW 10.1 mph16.3 kmh -338605.1 mb - 0.00 in0.0 mm 0.00 in0.0 mm
07:57 PM 92.1°F33.4°C 47.8°F8.8°C 22% 11.0 mph WSW17.7 kmh WSW 10.1 mph16.3 kmh -338605.1 mb - 0.00 in0.0 mm 0.00 in0.0 mm
08:02 PM 91.9°F33.3°C 47.7°F8.7°C 22% 11.0 mph WSW17.7 kmh WSW 8.9 mph14.3 kmh -338605.1 mb - 0.00 in0.0 mm 0.00 in0.0 mm
08:07 PM 91.8°F33.2°C 48.7°F9.3°C 23% 11.0 mph SW17.7 kmh SW 11.0 mph17.7 kmh -338605.1 mb - 0.00 in0.0 mm 0.00 in0.0 mm
08:12 PM 91.6°F33.1°C 48.6°F9.2°C 23% 10.1 mph WSW16.3 kmh WSW 6.9 mph11.1 kmh -338605.1 mb - 0.00 in0.0 mm 0.00 in0.0 mm
08:17 PM 91.2°F32.9°C 48.2°F9.0°C 23% 10.1 mph SW16.3 kmh SW 11.0 mph17.7 kmh -338605.1 mb - 0.00 in0.0 mm 0.00 in0.0 mm
08:22 PM 91.0°F32.8°C 48.0°F8.9°C 23% 10.1 mph SW16.3 kmh SW 10.1 mph16.3 kmh -338605.1 mb - 0.00 in0.0 mm 0.00 in0.0 mm
08:27 PM 91.0°F32.8°C 48.0°F8.9°C 23% 8.9 mph SW14.3 kmh SW 8.9 mph14.3 kmh -338605.1 mb - 0.00 in0.0 mm 0.00 in0.0 mm
08:32 PM 90.7°F32.6°C 48.9°F9.4°C 24% 8.1 mph SSW13.0 kmh SSW 8.1 mph13.0 kmh -338605.1 mb - 0.00 in0.0 mm 0.00 in0.0 mm
08:37 PM 90.1°F32.3°C 48.6°F9.2°C 24% 6.9 mph SW11.1 kmh SW 6.9 mph11.1 kmh -338605.1 mb - 0.00 in0.0 mm 0.00 in0.0 mm
08:42 PM 90.0°F32.2°C 48.4°F9.1°C 24% 6.0 mph SSW9.7 kmh SSW 4.9 mph7.9 kmh -338605.1 mb - 0.00 in0.0 mm 0.00 in0.0 mm
08:47 PM 90.0°F32.2°C 48.4°F9.1°C 24% 6.0 mph SSW9.7 kmh SSW 2.9 mph4.7 kmh -338605.1 mb - 0.00 in0.0 mm 0.00 in0.0 mm
08:52 PM 89.4°F31.9°C 47.8°F8.8°C 24% 6.0 mph SSW9.7 kmh SSW 4.0 mph6.4 kmh -338605.1 mb - 0.00 in0.0 mm 0.00 in0.0 mm
08:57 PM 89.4°F31.9°C 47.8°F8.8°C 24% 6.0 mph SSW9.7 kmh SSW 4.9 mph7.9 kmh -338605.1 mb - 0.00 in0.0 mm 0.00 in0.0 mm
09:02 PM 89.2°F31.8°C 47.7°F8.7°C 24% 4.9 mph S7.9 kmh S 6.0 mph9.7 kmh -338605.1 mb - 0.00 in0.0 mm 0.00 in0.0 mm
09:07 PM 89.1°F31.7°C 47.7°F8.7°C 24% 4.9 mph S7.9 kmh S 6.0 mph9.7 kmh -338605.1 mb - 0.00 in0.0 mm 0.00 in0.0 mm
09:12 PM 88.7°F31.5°C 47.3°F8.5°C 24% 4.9 mph SW7.9 kmh SW 4.9 mph7.9 kmh -338605.1 mb - 0.00 in0.0 mm 0.00 in0.0 mm
09:17 PM 88.5°F31.4°C 47.1°F8.4°C 24% 4.9 mph WSW7.9 kmh WSW 4.0 mph6.4 kmh -338605.1 mb - 0.00 in0.0 mm 0.00 in0.0 mm
09:22 PM 88.5°F31.4°C 47.1°F8.4°C 24% 6.0 mph WSW9.7 kmh WSW 6.0 mph9.7 kmh -338605.1 mb - 0.00 in0.0 mm 0.00 in0.0 mm
09:27 PM 89.1°F31.7°C 46.4°F8.0°C 23% 6.0 mph WSW9.7 kmh WSW 4.0 mph6.4 kmh -338605.1 mb - 0.00 in0.0 mm 0.00 in0.0 mm
09:32 PM 88.9°F31.6°C 46.2°F7.9°C 23% 6.0 mph SW9.7 kmh SW 4.0 mph6.4 kmh -338605.1 mb - 0.00 in0.0 mm 0.00 in0.0 mm
09:37 PM 88.3°F31.3°C 46.9°F8.3°C 24% 6.0 mph SW9.7 kmh SW 4.0 mph6.4 kmh -338605.1 mb - 0.00 in0.0 mm 0.00 in0.0 mm
09:42 PM 88.3°F31.3°C 46.9°F8.3°C 24% 6.0 mph SW9.7 kmh SW 8.1 mph13.0 kmh -338605.1 mb - 0.00 in0.0 mm 0.00 in0.0 mm
09:47 PM 88.3°F31.3°C 46.9°F8.3°C 24% 6.0 mph SW9.7 kmh SW 2.9 mph4.7 kmh -338605.1 mb - 0.00 in0.0 mm 0.00 in0.0 mm
09:52 PM 88.5°F31.4°C 47.1°F8.4°C 24% 6.0 mph SW9.7 kmh SW 6.0 mph9.7 kmh -338605.1 mb - 0.00 in0.0 mm 0.00 in0.0 mm
09:57 PM 88.3°F31.3°C 46.9°F8.3°C 24% 6.0 mph SW9.7 kmh SW 2.0 mph3.2 kmh -338605.1 mb - 0.00 in0.0 mm 0.00 in0.0 mm
10:02 PM 88.2°F31.2°C 46.8°F8.2°C 24% 4.0 mph SW6.4 kmh SW 2.0 mph3.2 kmh -338605.1 mb - 0.00 in0.0 mm 0.00 in0.0 mm
10:07 PM 87.8°F31.0°C 47.7°F8.7°C 25% 4.0 mph SW6.4 kmh SW 4.9 mph7.9 kmh -338605.1 mb - 0.00 in0.0 mm 0.00 in0.0 mm
10:12 PM 87.6°F30.9°C 46.4°F8.0°C 24% 4.0 mph SW6.4 kmh SW 6.9 mph11.1 kmh -338605.1 mb - 0.00 in0.0 mm 0.00 in0.0 mm
10:17 PM 87.6°F30.9°C 47.5°F8.6°C 25% 6.0 mph SW9.7 kmh SW 6.0 mph9.7 kmh -338605.1 mb - 0.00 in0.0 mm 0.00 in0.0 mm
10:22 PM 87.4°F30.8°C 47.3°F8.5°C 25% 6.0 mph SW9.7 kmh SW 6.0 mph9.7 kmh -338605.1 mb - 0.00 in0.0 mm 0.00 in0.0 mm
10:27 PM 87.4°F30.8°C 47.3°F8.5°C 25% 4.9 mph SW7.9 kmh SW 6.0 mph9.7 kmh -338605.1 mb - 0.00 in0.0 mm 0.00 in0.0 mm
10:32 PM 87.4°F30.8°C 47.3°F8.5°C 25% 6.0 mph SW9.7 kmh SW 6.0 mph9.7 kmh -338605.1 mb - 0.00 in0.0 mm 0.00 in0.0 mm
10:37 PM 87.4°F30.8°C 47.3°F8.5°C 25% 6.0 mph SW9.7 kmh SW 4.9 mph7.9 kmh -338605.1 mb - 0.00 in0.0 mm 0.00 in0.0 mm
10:42 PM 87.1°F30.6°C 46.9°F8.3°C 25% 6.9 mph SW11.1 kmh SW 8.1 mph13.0 kmh -338605.1 mb - 0.00 in0.0 mm 0.00 in0.0 mm
10:47 PM 86.9°F30.5°C 47.8°F8.8°C 26% 6.9 mph SW11.1 kmh SW 6.0 mph9.7 kmh -338605.1 mb - 0.00 in0.0 mm 0.00 in0.0 mm
10:52 PM 86.9°F30.5°C 47.8°F8.8°C 26% 6.9 mph SW11.1 kmh SW 4.9 mph7.9 kmh -338605.1 mb - 0.00 in0.0 mm 0.00 in0.0 mm
10:57 PM 87.1°F30.6°C 48.0°F8.9°C 26% 6.9 mph WSW11.1 kmh WSW 8.9 mph14.3 kmh -338605.1 mb - 0.00 in0.0 mm 0.00 in0.0 mm
11:02 PM 87.1°F30.6°C 48.0°F8.9°C 26% 6.9 mph WSW11.1 kmh WSW 4.9 mph7.9 kmh -338605.1 mb - 0.00 in0.0 mm 0.00 in0.0 mm
11:07 PM 87.3°F30.7°C 47.1°F8.4°C 25% 6.9 mph W11.1 kmh W 4.9 mph7.9 kmh -338605.1 mb - 0.00 in0.0 mm 0.00 in0.0 mm
11:12 PM 89.1°F31.7°C 47.7°F8.7°C 24% 6.9 mph WSW11.1 kmh WSW 6.0 mph9.7 kmh -338605.1 mb - 0.00 in0.0 mm 0.00 in0.0 mm
11:17 PM 89.6°F32.0°C 46.9°F8.3°C 23% 6.9 mph WSW11.1 kmh WSW 8.1 mph13.0 kmh -338605.1 mb - 0.00 in0.0 mm 0.00 in0.0 mm
11:22 PM 89.8°F32.1°C 47.1°F8.4°C 23% 6.9 mph W11.1 kmh W 8.1 mph13.0 kmh -338605.1 mb - 0.00 in0.0 mm 0.00 in0.0 mm
11:27 PM 88.9°F31.6°C 47.5°F8.6°C 24% 6.9 mph WSW11.1 kmh WSW 6.0 mph9.7 kmh -338605.1 mb - 0.00 in0.0 mm 0.00 in0.0 mm
11:32 PM 87.6°F30.9°C 47.5°F8.6°C 25% 6.0 mph W9.7 kmh W 4.0 mph6.4 kmh -338605.1 mb - 0.00 in0.0 mm 0.00 in0.0 mm
11:37 PM 88.2°F31.2°C 46.8°F8.2°C 24% 4.9 mph W7.9 kmh W 4.0 mph6.4 kmh -338605.1 mb - 0.00 in0.0 mm 0.00 in0.0 mm
11:42 PM 87.3°F30.7°C 47.1°F8.4°C 25% 4.9 mph WSW7.9 kmh WSW 6.0 mph9.7 kmh -338605.1 mb - 0.00 in0.0 mm 0.00 in0.0 mm
11:47 PM 86.5°F30.3°C 46.6°F8.1°C 25% 4.9 mph WSW7.9 kmh WSW 6.0 mph9.7 kmh -338605.1 mb - 0.00 in0.0 mm 0.00 in0.0 mm
11:52 PM 85.6°F29.8°C 46.8°F8.2°C 26% 6.0 mph WSW9.7 kmh WSW 4.9 mph7.9 kmh -338605.1 mb - 0.00 in0.0 mm 0.00 in0.0 mm
11:57 PM 86.0°F30.0°C 47.1°F8.4°C 26% 4.9 mph WSW7.9 kmh WSW 2.0 mph3.2 kmh -338605.1 mb - 0.00 in0.0 mm 0.00 in0.0 mm